createdAt,value
2022-08-01T00:00:36.151Z,26.32
2022-08-01T00:01:40.563Z,26.32
2022-08-01T00:03:32.821Z,26.32
2022-08-01T00:04:30.205Z,26.34
2022-08-01T00:05:22.161Z,26.34
2022-08-01T00:06:29.493Z,26.34
2022-08-01T00:07:27.220Z,26.34
2022-08-01T00:08:28.352Z,26.35
2022-08-01T00:09:27.651Z,26.35
2022-08-01T00:10:19.070Z,26.35
2022-08-01T00:11:22.928Z,26.35
2022-08-01T00:12:21.951Z,26.36
2022-08-01T00:14:08.039Z,26.37
2022-08-01T00:16:12.255Z,26.38
2022-08-01T00:17:07.606Z,26.37
2022-08-01T00:18:02.398Z,26.38
2022-08-01T00:21:37.251Z,26.39
2022-08-01T00:23:30.688Z,26.39
2022-08-01T00:24:20.201Z,26.39
2022-08-01T00:25:18.056Z,26.41
2022-08-01T00:26:13.673Z,26.41
2022-08-01T00:27:05.966Z,26.39
2022-08-01T00:27:58.358Z,26.41
2022-08-01T00:30:58.267Z,26.40
2022-08-01T00:31:54.392Z,26.40
2022-08-01T00:32:47.493Z,26.41
2022-08-01T00:33:36.901Z,26.41
2022-08-01T00:34:26.636Z,26.42
2022-08-01T00:35:09.222Z,26.41
2022-08-01T00:35:59.920Z,26.42
2022-08-01T00:37:50.909Z,26.42
2022-08-01T00:38:48.096Z,26.39
2022-08-01T00:42:26.592Z,26.26
2022-08-01T00:43:21.875Z,26.22
2022-08-01T00:47:55.022Z,26.10
2022-08-01T00:48:38.317Z,26.08
2022-08-01T00:49:23.954Z,26.06
2022-08-01T00:50:09.357Z,26.04
2022-08-01T00:50:57.420Z,26.04
2022-08-01T00:51:53.414Z,26.03
2022-08-01T00:52:51.375Z,26.02
2022-08-01T00:53:51.223Z,25.99
2022-08-01T00:54:38.703Z,26.00
2022-08-01T00:55:47.543Z,25.98
2022-08-01T00:56:50.098Z,25.97
2022-08-01T00:58:04.779Z,25.95
2022-08-01T00:58:52.339Z,25.94
2022-08-01T00:59:46.864Z,25.93
2022-08-01T01:00:52.743Z,25.94
2022-08-01T01:01:46.476Z,25.92
2022-08-01T01:02:33.877Z,25.90
2022-08-01T01:03:49.391Z,25.89
2022-08-01T01:04:27.772Z,25.89
2022-08-01T01:05:17.544Z,25.88
2022-08-01T01:06:10.821Z,25.88
2022-08-01T01:06:57.216Z,25.86
2022-08-01T01:07:49.933Z,25.86
2022-08-01T01:08:33.942Z,25.85
2022-08-01T01:09:27.318Z,25.83
2022-08-01T01:10:20.946Z,25.83
2022-08-01T01:11:09.832Z,25.81
2022-08-01T01:12:09.459Z,25.80
2022-08-01T01:12:56.836Z,25.79
2022-08-01T01:13:50.348Z,25.79
2022-08-01T01:14:40.369Z,25.79
2022-08-01T01:15:25.760Z,25.77
2022-08-01T01:16:14.538Z,25.78
2022-08-01T01:16:59.387Z,25.79
2022-08-01T01:17:50.972Z,25.76
2022-08-01T01:18:32.128Z,25.76
2022-08-01T01:19:18.504Z,25.76
2022-08-01T01:20:09.453Z,25.76
2022-08-01T01:21:03.771Z,25.75
2022-08-01T01:21:49.399Z,25.76
2022-08-01T01:22:40.891Z,25.76
2022-08-01T01:23:28.983Z,25.73
2022-08-01T01:24:20.573Z,25.73
2022-08-01T01:25:06.950Z,25.73
2022-08-01T01:25:58.635Z,25.73
2022-08-01T01:26:41.996Z,25.72
2022-08-01T01:27:32.182Z,25.72
2022-08-01T01:28:17.388Z,25.71
2022-08-01T01:29:07.432Z,25.72
2022-08-01T01:29:59.675Z,25.72
2022-08-01T01:30:47.388Z,25.71
2022-08-01T01:31:36.186Z,25.71
2022-08-01T01:32:28.678Z,25.70
2022-08-01T01:33:16.173Z,25.69
2022-08-01T01:34:04.090Z,25.70
2022-08-01T01:34:54.605Z,25.69
2022-08-01T01:35:40.892Z,25.69
2022-08-01T01:36:24.107Z,25.68
2022-08-01T01:37:12.128Z,25.67
2022-08-01T01:37:58.125Z,25.65
2022-08-01T01:38:47.253Z,25.66
2022-08-01T01:39:33.801Z,25.65
2022-08-01T01:40:22.416Z,25.65
2022-08-01T01:41:04.032Z,25.65
2022-08-01T01:41:53.370Z,25.65
2022-08-01T01:42:48.606Z,25.65
2022-08-01T01:43:36.631Z,25.65
2022-08-01T01:44:25.057Z,25.63
2022-08-01T01:45:21.596Z,25.64
2022-08-01T01:48:15.626Z,25.65
2022-08-01T01:49:17.330Z,25.64
2022-08-01T01:50:17.994Z,25.64
2022-08-01T01:51:14.302Z,25.65
2022-08-01T01:52:53.721Z,25.64
2022-08-01T01:56:00.659Z,25.64
2022-08-01T01:57:01.571Z,25.64
2022-08-01T01:57:58.623Z,25.64
2022-08-01T01:58:49.173Z,25.63
2022-08-01T01:59:43.504Z,25.63
2022-08-01T02:00:38.750Z,25.63
2022-08-01T02:02:05.464Z,25.62
2022-08-01T02:02:52.629Z,25.63
2022-08-01T02:04:04.998Z,25.62
2022-08-01T02:05:05.078Z,25.62
2022-08-01T02:06:11.982Z,25.61
2022-08-01T02:07:06.153Z,25.62
2022-08-01T02:07:59.665Z,25.62
2022-08-01T02:08:54.977Z,25.61
2022-08-01T02:10:47.202Z,25.60
2022-08-01T02:12:58.435Z,25.59
2022-08-01T02:14:01.879Z,25.58
2022-08-01T02:14:59.155Z,25.59
2022-08-01T02:15:59.447Z,25.58
2022-08-01T02:17:07.159Z,25.58
2022-08-01T02:17:51.330Z,25.58
2022-08-01T02:18:36.022Z,25.59
2022-08-01T02:19:20.621Z,25.60
2022-08-01T02:20:04.344Z,25.59
2022-08-01T02:20:47.703Z,25.60
2022-08-01T02:22:29.989Z,25.60
2022-08-01T02:23:15.234Z,25.60
2022-08-01T02:24:03.994Z,25.60
2022-08-01T02:24:53.715Z,25.60
2022-08-01T02:26:08.521Z,25.61
2022-08-01T02:26:48.504Z,25.60
2022-08-01T02:27:34.383Z,25.61
2022-08-01T02:28:19.550Z,25.61
2022-08-01T02:29:13.365Z,25.61
2022-08-01T02:30:06.368Z,25.62
2022-08-01T02:30:56.065Z,25.62
2022-08-01T02:31:47.708Z,25.62
2022-08-01T02:32:30.485Z,25.63
2022-08-01T02:33:24.668Z,25.62
2022-08-01T02:34:11.221Z,25.62
2022-08-01T02:35:03.913Z,25.61
2022-08-01T02:36:29.804Z,25.61
2022-08-01T02:36:53.860Z,25.62
2022-08-01T02:37:44.427Z,25.62
2022-08-01T02:38:39.770Z,25.62
2022-08-01T02:39:29.330Z,25.62
2022-08-01T02:40:17.186Z,25.61
2022-08-01T02:41:07.672Z,25.61
2022-08-01T02:42:00.841Z,25.60
2022-08-01T02:42:50.458Z,25.61
2022-08-01T02:43:41.346Z,25.61
2022-08-01T02:44:35.894Z,25.60
2022-08-01T02:45:20.986Z,25.60
2022-08-01T02:46:13.362Z,25.59
2022-08-01T02:46:57.604Z,25.59
2022-08-01T02:47:49.169Z,25.59
2022-08-01T02:48:33.976Z,25.59
2022-08-01T02:50:11.065Z,25.59
2022-08-01T02:51:05.037Z,25.59
2022-08-01T02:51:49.656Z,25.60
2022-08-01T02:52:43.058Z,25.60
2022-08-01T02:53:44.156Z,25.59
2022-08-01T02:54:27.792Z,25.59
2022-08-01T02:55:28.909Z,25.60
2022-08-01T02:56:19.313Z,25.61
2022-08-01T02:57:08.281Z,25.59
2022-08-01T02:57:58.429Z,25.59
2022-08-01T02:58:43.846Z,25.59
2022-08-01T02:59:32.527Z,25.59
2022-08-01T03:00:18.740Z,25.60
2022-08-01T03:01:04.436Z,25.59
2022-08-01T03:01:55.088Z,25.59
2022-08-01T03:02:45.016Z,25.58
2022-08-01T03:03:31.121Z,25.58
2022-08-01T03:04:21.015Z,25.59
2022-08-01T03:05:10.057Z,25.58
2022-08-01T03:06:03.496Z,25.58
2022-08-01T03:06:47.786Z,25.59
2022-08-01T03:07:40.664Z,25.58
2022-08-01T03:08:28.886Z,25.59
2022-08-01T03:09:19.779Z,25.58
2022-08-01T03:10:09.346Z,25.58
2022-08-01T03:10:59.644Z,25.59
2022-08-01T03:11:52.533Z,25.60
2022-08-01T03:12:37.637Z,25.59
2022-08-01T03:13:29.769Z,25.58
2022-08-01T03:14:15.710Z,25.58
2022-08-01T03:15:07.648Z,25.57
2022-08-01T03:15:55.141Z,25.59
2022-08-01T03:16:41.734Z,25.59
2022-08-01T03:17:24.404Z,25.58
2022-08-01T03:18:17.736Z,25.58
2022-08-01T03:19:03.882Z,25.58
2022-08-01T03:19:50.690Z,25.58
2022-08-01T03:20:36.824Z,25.57
2022-08-01T03:21:26.640Z,25.57
2022-08-01T03:22:11.735Z,25.58
2022-08-01T03:24:01.912Z,25.58
2022-08-01T03:24:58.403Z,25.57
2022-08-01T03:25:52.505Z,25.57
2022-08-01T03:28:55.786Z,25.57
2022-08-01T03:29:53.681Z,25.57
2022-08-01T03:31:50.600Z,25.56
2022-08-01T03:32:42.955Z,25.56
2022-08-01T03:33:25.332Z,25.56
2022-08-01T03:34:11.476Z,25.55
2022-08-01T03:34:56.577Z,25.56
2022-08-01T03:35:40.509Z,25.56
2022-08-01T03:36:24.255Z,25.55
2022-08-01T03:37:09.298Z,25.55
2022-08-01T03:38:14.658Z,25.56
2022-08-01T03:38:50.672Z,25.56
2022-08-01T03:39:35.654Z,25.55
2022-08-01T03:40:23.400Z,25.55
2022-08-01T03:41:06.359Z,25.55
2022-08-01T03:41:52.567Z,25.56
2022-08-01T03:42:40.015Z,25.54
2022-08-01T03:43:21.071Z,25.54
2022-08-01T03:44:05.264Z,25.54
2022-08-01T03:44:50.355Z,25.55
2022-08-01T03:45:33.666Z,25.55
2022-08-01T03:46:17.799Z,25.55
2022-08-01T03:47:03.206Z,25.54
2022-08-01T03:47:45.875Z,25.54
2022-08-01T03:48:26.886Z,25.54
2022-08-01T03:49:12.000Z,25.53
2022-08-01T03:49:55.560Z,25.54
2022-08-01T03:50:41.393Z,25.54
2022-08-01T03:51:24.946Z,25.53
2022-08-01T03:52:09.360Z,25.54
2022-08-01T03:52:54.357Z,25.55
2022-08-01T03:53:36.055Z,25.54
2022-08-01T03:54:23.587Z,25.54
2022-08-01T03:55:09.082Z,25.53
2022-08-01T03:55:52.049Z,25.54
2022-08-01T03:56:36.791Z,25.55
2022-08-01T03:57:36.424Z,25.55
2022-08-01T03:58:16.634Z,25.55
2022-08-01T03:59:03.474Z,25.55
2022-08-01T03:59:49.634Z,25.56
2022-08-01T04:00:35.314Z,25.55
2022-08-01T04:01:22.818Z,25.56
2022-08-01T04:02:09.945Z,25.57
2022-08-01T04:02:56.174Z,25.56
2022-08-01T04:03:41.475Z,25.57
2022-08-01T04:04:25.124Z,25.56
2022-08-01T04:05:10.367Z,25.55
2022-08-01T04:05:54.916Z,25.55
2022-08-01T04:06:37.979Z,25.54
2022-08-01T04:07:22.742Z,25.53
2022-08-01T04:08:09.374Z,25.53
2022-08-01T04:08:50.776Z,25.52
2022-08-01T04:09:35.564Z,25.53
2022-08-01T04:10:20.564Z,25.52
2022-08-01T04:11:06.434Z,25.52
2022-08-01T04:11:51.052Z,25.51
2022-08-01T04:12:36.628Z,25.51
2022-08-01T04:13:23.294Z,25.52
2022-08-01T04:14:13.772Z,25.52
2022-08-01T04:14:58.444Z,25.51
2022-08-01T04:15:43.864Z,25.52
2022-08-01T04:16:31.283Z,25.52
2022-08-01T04:17:14.859Z,25.51
2022-08-01T04:17:59.489Z,25.51
2022-08-01T04:18:43.331Z,25.51
2022-08-01T04:19:25.228Z,25.51
2022-08-01T04:20:07.985Z,25.51
2022-08-01T04:20:53.691Z,25.51
2022-08-01T04:21:36.986Z,25.51
2022-08-01T04:22:21.950Z,25.50
2022-08-01T04:23:05.271Z,25.50
2022-08-01T04:23:52.597Z,25.49
2022-08-01T04:24:33.468Z,25.49
2022-08-01T04:25:17.247Z,25.50
2022-08-01T04:26:03.434Z,25.49
2022-08-01T04:26:48.043Z,25.49
2022-08-01T04:27:50.021Z,25.48
2022-08-01T04:28:33.960Z,25.47
2022-08-01T04:29:17.713Z,25.48
2022-08-01T04:29:59.828Z,25.48
2022-08-01T04:30:44.971Z,25.47
2022-08-01T04:31:29.934Z,25.46
2022-08-01T04:32:15.242Z,25.47
2022-08-01T04:33:00.445Z,25.48
2022-08-01T04:33:43.748Z,25.46
2022-08-01T04:34:30.559Z,25.47
2022-08-01T04:35:22.839Z,25.45
2022-08-01T04:36:14.966Z,25.46
2022-08-01T04:36:59.495Z,25.47
2022-08-01T04:37:44.823Z,25.46
2022-08-01T04:38:29.485Z,25.46
2022-08-01T04:39:10.640Z,25.45
2022-08-01T04:39:57.344Z,25.44
2022-08-01T04:40:41.743Z,25.44
2022-08-01T04:41:25.372Z,25.45
2022-08-01T04:42:10.292Z,25.43
2022-08-01T04:42:55.754Z,25.43
2022-08-01T04:43:44.673Z,25.43
2022-08-01T04:44:31.001Z,25.43
2022-08-01T04:45:14.779Z,25.43
2022-08-01T04:46:00.379Z,25.43
2022-08-01T04:46:47.799Z,25.44
2022-08-01T04:47:33.583Z,25.44
2022-08-01T04:48:19.226Z,25.43
2022-08-01T04:49:07.107Z,25.43
2022-08-01T04:49:57.702Z,25.43
2022-08-01T04:50:42.987Z,25.42
2022-08-01T04:51:28.762Z,25.41
2022-08-01T04:52:18.139Z,25.41
2022-08-01T04:53:03.872Z,25.41
2022-08-01T04:53:49.811Z,25.41
2022-08-01T04:54:32.543Z,25.42
2022-08-01T04:55:16.437Z,25.41
2022-08-01T04:56:01.778Z,25.42
2022-08-01T04:56:47.402Z,25.41
2022-08-01T04:57:35.088Z,25.41
2022-08-01T04:58:20.720Z,25.41
2022-08-01T04:59:08.404Z,25.42
2022-08-01T04:59:50.773Z,25.41
2022-08-01T05:00:36.212Z,25.41
2022-08-01T05:01:21.999Z,25.42
2022-08-01T05:02:08.972Z,25.42
2022-08-01T05:02:55.525Z,25.41
2022-08-01T05:03:41.840Z,25.43
2022-08-01T05:04:29.372Z,25.42
2022-08-01T05:05:20.419Z,25.42
2022-08-01T05:06:04.671Z,25.41
2022-08-01T05:06:50.338Z,25.42
2022-08-01T05:07:45.176Z,25.41
2022-08-01T05:08:29.518Z,25.42
2022-08-01T05:09:15.989Z,25.42
2022-08-01T05:09:58.711Z,25.42
2022-08-01T05:11:12.938Z,25.41
2022-08-01T05:12:00.641Z,25.41
2022-08-01T05:12:48.305Z,25.40
2022-08-01T05:13:35.928Z,25.39
2022-08-01T05:14:21.448Z,25.40
2022-08-01T05:15:15.453Z,25.39
2022-08-01T05:15:58.469Z,25.38
2022-08-01T05:17:02.398Z,25.38
2022-08-01T05:17:47.391Z,25.38
2022-08-01T05:18:29.971Z,25.39
2022-08-01T05:19:14.967Z,25.38
2022-08-01T05:20:00.353Z,25.37
2022-08-01T05:20:42.350Z,25.38
2022-08-01T05:21:26.280Z,25.38
2022-08-01T05:22:14.284Z,25.37
2022-08-01T05:23:02.957Z,25.37
2022-08-01T05:23:51.001Z,25.37
2022-08-01T05:24:40.117Z,25.37
2022-08-01T05:25:57.614Z,25.37
2022-08-01T05:26:43.309Z,25.36
2022-08-01T05:27:32.120Z,25.37
2022-08-01T05:28:28.117Z,25.35
2022-08-01T05:29:16.316Z,25.36
2022-08-01T05:30:01.633Z,25.36
2022-08-01T05:30:47.150Z,25.36
2022-08-01T05:31:34.682Z,25.37
2022-08-01T05:32:33.179Z,25.37
2022-08-01T05:33:26.298Z,25.36
2022-08-01T05:34:14.833Z,25.37
2022-08-01T05:35:01.665Z,25.37
2022-08-01T05:35:48.150Z,25.37
2022-08-01T05:36:30.473Z,25.37
2022-08-01T05:37:21.068Z,25.37
2022-08-01T05:38:41.119Z,25.37
2022-08-01T05:39:26.366Z,25.36
2022-08-01T05:40:15.332Z,25.37
2022-08-01T05:41:02.561Z,25.36
2022-08-01T05:41:47.117Z,25.36
2022-08-01T05:42:33.094Z,25.36
2022-08-01T05:43:28.200Z,25.36
2022-08-01T05:44:18.572Z,25.35
2022-08-01T05:45:12.593Z,25.36
2022-08-01T05:45:58.973Z,25.34
2022-08-01T05:46:44.364Z,25.36
2022-08-01T05:47:27.372Z,25.35
2022-08-01T05:48:23.255Z,25.34
2022-08-01T05:49:08.440Z,25.34
2022-08-01T05:49:55.641Z,25.34
2022-08-01T05:50:45.907Z,25.34
2022-08-01T05:51:47.408Z,25.34
2022-08-01T05:52:32.662Z,25.34
2022-08-01T05:53:17.766Z,25.34
2022-08-01T05:54:02.096Z,25.35
2022-08-01T05:54:49.336Z,25.34
2022-08-01T05:55:33.743Z,25.33
2022-08-01T05:56:20.694Z,25.33
2022-08-01T05:57:08.921Z,25.34
2022-08-01T05:57:51.184Z,25.33
2022-08-01T05:58:37.583Z,25.34
2022-08-01T05:59:23.035Z,25.32
2022-08-01T06:00:08.196Z,25.33
2022-08-01T06:00:54.663Z,25.32
2022-08-01T06:01:41.364Z,25.32
2022-08-01T06:02:28.903Z,25.32
2022-08-01T06:03:10.959Z,25.33
2022-08-01T06:03:57.980Z,25.32
2022-08-01T06:04:42.690Z,25.33
2022-08-01T06:06:45.170Z,25.34
2022-08-01T06:07:47.025Z,25.33
2022-08-01T06:08:34.055Z,25.33
2022-08-01T06:09:19.533Z,25.33
2022-08-01T06:10:05.899Z,25.34
2022-08-01T06:10:54.639Z,25.33
2022-08-01T06:11:47.155Z,25.34
2022-08-01T06:12:47.537Z,25.32
2022-08-01T06:13:48.886Z,25.33
2022-08-01T06:14:32.320Z,25.33
2022-08-01T06:15:19.176Z,25.34
2022-08-01T06:16:07.388Z,25.33
2022-08-01T06:16:57.936Z,25.34
2022-08-01T06:17:45.145Z,25.33
2022-08-01T06:18:38.611Z,25.32
2022-08-01T06:19:47.907Z,25.33
2022-08-01T06:20:33.506Z,25.34
2022-08-01T06:21:19.924Z,25.33
2022-08-01T06:22:05.246Z,25.33
2022-08-01T06:23:45.748Z,25.32
2022-08-01T06:24:35.805Z,25.33
2022-08-01T06:25:21.173Z,25.33
2022-08-01T06:26:01.975Z,25.33
2022-08-01T06:26:47.972Z,25.34
2022-08-01T06:27:33.462Z,25.33
2022-08-01T06:28:16.815Z,25.33
2022-08-01T06:29:02.113Z,25.33
2022-08-01T06:30:01.455Z,25.32
2022-08-01T06:30:47.790Z,25.32
2022-08-01T06:31:33.501Z,25.32
2022-08-01T06:32:25.423Z,25.32
2022-08-01T06:33:12.018Z,25.32
2022-08-01T06:34:02.481Z,25.30
2022-08-01T06:35:47.900Z,25.30
2022-08-01T06:36:30.534Z,25.31
2022-08-01T06:37:18.566Z,25.31
2022-08-01T06:38:04.358Z,25.31
2022-08-01T06:38:50.527Z,25.31
2022-08-01T06:39:37.756Z,25.31
2022-08-01T06:40:23.585Z,25.32
2022-08-01T06:42:28.674Z,25.31
2022-08-01T06:43:19.020Z,25.31
2022-08-01T06:44:04.894Z,25.32
2022-08-01T06:44:53.486Z,25.31
2022-08-01T06:45:40.420Z,25.31
2022-08-01T06:46:23.106Z,25.30
2022-08-01T06:47:10.831Z,25.29
2022-08-01T06:48:04.601Z,25.30
2022-08-01T06:48:51.037Z,25.30
2022-08-01T06:49:44.553Z,25.30
2022-08-01T06:50:32.244Z,25.30
2022-08-01T06:51:19.823Z,25.30
2022-08-01T06:52:03.436Z,25.30
2022-08-01T06:52:49.439Z,25.30
2022-08-01T06:53:38.010Z,25.29
2022-08-01T06:54:33.592Z,25.29
2022-08-01T06:55:20.648Z,25.30
2022-08-01T06:56:06.494Z,25.30
2022-08-01T06:56:51.140Z,25.29
2022-08-01T06:57:39.551Z,25.30
2022-08-01T06:58:30.915Z,25.29
2022-08-01T06:59:15.878Z,25.29
2022-08-01T07:01:13.114Z,25.28
2022-08-01T07:02:00.330Z,25.27
2022-08-01T07:02:44.980Z,25.26
2022-08-01T07:03:53.904Z,25.27
2022-08-01T07:04:30.676Z,25.28
2022-08-01T07:05:14.892Z,25.27
2022-08-01T07:05:59.649Z,25.28
2022-08-01T07:06:42.506Z,25.28
2022-08-01T07:07:27.424Z,25.27
2022-08-01T07:08:14.482Z,25.27
2022-08-01T07:09:08.457Z,25.28
2022-08-01T07:09:54.498Z,25.28
2022-08-01T07:10:43.427Z,25.28
2022-08-01T07:11:36.271Z,25.28
2022-08-01T07:12:52.500Z,25.26
2022-08-01T07:13:53.347Z,25.26
2022-08-01T07:14:41.328Z,25.25
2022-08-01T07:15:28.445Z,25.25
2022-08-01T07:16:15.851Z,25.26
2022-08-01T07:17:01.460Z,25.26
2022-08-01T07:17:47.258Z,25.25
2022-08-01T07:18:41.420Z,25.25
2022-08-01T07:19:26.458Z,25.25
2022-08-01T07:20:16.595Z,25.25
2022-08-01T07:21:45.250Z,25.28
2022-08-01T07:22:42.572Z,25.27
2022-08-01T07:23:30.473Z,25.27
2022-08-01T07:24:21.162Z,25.27
2022-08-01T07:25:07.589Z,25.26
2022-08-01T07:26:18.115Z,25.26
2022-08-01T07:27:21.275Z,25.27
2022-08-01T07:28:07.226Z,25.25
2022-08-01T07:29:56.179Z,25.26
2022-08-01T07:31:03.994Z,25.26
2022-08-01T07:32:28.555Z,25.26
2022-08-01T07:33:17.727Z,25.26
2022-08-01T07:34:09.915Z,25.26
2022-08-01T07:34:59.169Z,25.26
2022-08-01T07:35:46.405Z,25.26
2022-08-01T07:36:34.016Z,25.26
2022-08-01T07:37:17.960Z,25.26
2022-08-01T07:38:20.767Z,25.26
2022-08-01T07:39:07.730Z,25.25
2022-08-01T07:39:54.744Z,25.24
2022-08-01T07:40:44.062Z,25.24
2022-08-01T07:41:53.849Z,25.24
2022-08-01T07:42:38.165Z,25.24
2022-08-01T07:43:25.719Z,25.24
2022-08-01T07:44:19.136Z,25.23
2022-08-01T07:45:46.406Z,25.24
2022-08-01T07:46:32.172Z,25.23
2022-08-01T07:47:19.345Z,25.23
2022-08-01T07:48:01.991Z,25.24
2022-08-01T07:48:47.808Z,25.23
2022-08-01T07:49:39.165Z,25.23
2022-08-01T07:50:26.096Z,25.23
2022-08-01T07:51:42.111Z,25.22
2022-08-01T07:52:43.339Z,25.23
2022-08-01T07:53:32.540Z,25.22
2022-08-01T07:54:49.245Z,25.22
2022-08-01T07:55:36.815Z,25.22
2022-08-01T07:56:25.100Z,25.22
2022-08-01T07:57:11.997Z,25.22
2022-08-01T07:58:00.345Z,25.23
2022-08-01T07:58:52.552Z,25.23
2022-08-01T07:59:43.045Z,25.23
2022-08-01T08:00:30.694Z,25.23
2022-08-01T08:01:16.659Z,25.23
2022-08-01T08:02:02.841Z,25.23
2022-08-01T08:02:49.641Z,25.23
2022-08-01T08:03:35.757Z,25.22
2022-08-01T08:04:24.417Z,25.22
2022-08-01T08:05:10.800Z,25.22
2022-08-01T08:06:01.260Z,25.22
2022-08-01T08:06:47.835Z,25.22
2022-08-01T08:07:55.224Z,25.24
2022-08-01T08:08:48.712Z,25.23
2022-08-01T08:09:37.337Z,25.23
2022-08-01T08:10:24.838Z,25.24
2022-08-01T08:11:13.621Z,25.23
2022-08-01T08:12:09.021Z,25.24
2022-08-01T08:12:55.848Z,25.24
2022-08-01T08:14:17.036Z,25.23
2022-08-01T08:15:04.394Z,25.23
2022-08-01T08:17:08.033Z,25.23
2022-08-01T08:17:58.922Z,25.23
2022-08-01T08:18:43.069Z,25.24
2022-08-01T08:19:37.259Z,25.24
2022-08-01T08:20:21.298Z,25.24
2022-08-01T08:21:07.108Z,25.24
2022-08-01T08:21:51.808Z,25.23
2022-08-01T08:22:37.855Z,25.24
2022-08-01T08:23:41.201Z,25.24
2022-08-01T08:24:27.331Z,25.24
2022-08-01T08:25:08.625Z,25.24
2022-08-01T08:25:55.204Z,25.23
2022-08-01T08:27:48.625Z,25.25
2022-08-01T08:28:37.775Z,25.25
2022-08-01T08:29:23.611Z,25.25
2022-08-01T08:30:18.442Z,25.25
2022-08-01T08:31:59.915Z,25.26
2022-08-01T08:32:43.815Z,25.27
2022-08-01T08:33:42.736Z,25.26
2022-08-01T08:34:27.599Z,25.27
2022-08-01T08:35:11.970Z,25.27
2022-08-01T08:35:58.312Z,25.26
2022-08-01T08:36:47.698Z,25.26
2022-08-01T08:37:38.000Z,25.26
2022-08-01T08:38:28.416Z,25.27
2022-08-01T08:39:13.184Z,25.27
2022-08-01T08:40:02.007Z,25.26
2022-08-01T08:40:47.928Z,25.26
2022-08-01T08:41:36.957Z,25.27
2022-08-01T08:42:22.629Z,25.26
2022-08-01T08:43:09.607Z,25.27
2022-08-01T08:45:03.083Z,25.26
2022-08-01T08:46:00.079Z,25.25
2022-08-01T08:46:45.278Z,25.25
2022-08-01T08:47:32.342Z,25.25
2022-08-01T08:48:19.629Z,25.26
2022-08-01T08:49:13.225Z,25.26
2022-08-01T08:50:00.040Z,25.26
2022-08-01T08:50:46.085Z,25.27
2022-08-01T08:51:32.880Z,25.27
2022-08-01T08:52:20.035Z,25.26
2022-08-01T08:53:07.009Z,25.27
2022-08-01T08:53:54.951Z,25.27
2022-08-01T08:54:41.163Z,25.26
2022-08-01T08:55:27.802Z,25.26
2022-08-01T08:56:21.997Z,25.26
2022-08-01T08:57:09.795Z,25.26
2022-08-01T08:57:57.498Z,25.26
2022-08-01T08:58:44.424Z,25.27
2022-08-01T08:59:31.058Z,25.27
2022-08-01T09:00:20.313Z,25.29
2022-08-01T09:01:06.697Z,25.28
2022-08-01T09:01:58.738Z,25.28
2022-08-01T09:02:44.999Z,25.28
2022-08-01T09:03:35.010Z,25.28
2022-08-01T09:05:19.081Z,25.27
2022-08-01T09:06:03.054Z,25.29
2022-08-01T09:06:48.411Z,25.28
2022-08-01T09:07:36.670Z,25.28
2022-08-01T09:08:25.790Z,25.27
2022-08-01T09:09:13.805Z,25.27
2022-08-01T09:10:01.845Z,25.26
2022-08-01T09:10:47.491Z,25.26
2022-08-01T09:11:42.685Z,25.27
2022-08-01T09:12:47.220Z,25.28
2022-08-01T09:13:38.471Z,25.27
2022-08-01T09:14:29.548Z,25.27
2022-08-01T09:15:18.987Z,25.28
2022-08-01T09:16:07.065Z,25.29
2022-08-01T09:16:57.066Z,25.29
2022-08-01T09:17:40.242Z,25.28
2022-08-01T09:18:25.213Z,25.30
2022-08-01T09:19:16.501Z,25.30
2022-08-01T09:20:11.634Z,25.29
2022-08-01T09:20:57.392Z,25.29
2022-08-01T09:21:42.732Z,25.29
2022-08-01T09:22:25.553Z,25.29
2022-08-01T09:23:11.302Z,25.29
2022-08-01T09:23:58.987Z,25.29
2022-08-01T09:24:45.893Z,25.29
2022-08-01T09:25:46.009Z,25.29
2022-08-01T09:26:31.180Z,25.29
2022-08-01T09:27:22.404Z,25.28
2022-08-01T09:28:03.771Z,25.28
2022-08-01T09:28:51.740Z,25.28
2022-08-01T09:29:41.533Z,25.28
2022-08-01T09:30:44.753Z,25.28
2022-08-01T09:31:38.394Z,25.28
2022-08-01T09:32:25.986Z,25.29
2022-08-01T09:33:17.723Z,25.28
2022-08-01T09:34:04.002Z,25.28
2022-08-01T09:34:48.638Z,25.28
2022-08-01T09:35:36.512Z,25.27
2022-08-01T09:36:27.861Z,25.28
2022-08-01T09:37:14.916Z,25.28
2022-08-01T09:38:01.505Z,25.28
2022-08-01T09:38:50.875Z,25.28
2022-08-01T09:39:39.876Z,25.27
2022-08-01T09:40:49.274Z,25.27
2022-08-01T09:41:39.887Z,25.27
2022-08-01T09:42:29.049Z,25.27
2022-08-01T09:43:15.013Z,25.27
2022-08-01T09:44:03.268Z,25.28
2022-08-01T09:44:55.117Z,25.27
2022-08-01T09:45:41.838Z,25.27
2022-08-01T09:46:28.580Z,25.27
2022-08-01T09:47:15.622Z,25.27
2022-08-01T09:48:58.051Z,25.27
2022-08-01T09:49:50.652Z,25.27
2022-08-01T09:50:39.421Z,25.27
2022-08-01T09:51:57.900Z,25.28
2022-08-01T09:52:28.968Z,25.29
2022-08-01T09:53:24.472Z,25.27
2022-08-01T09:54:16.664Z,25.28
2022-08-01T09:55:02.079Z,25.28
2022-08-01T09:56:04.840Z,25.28
2022-08-01T09:56:52.486Z,25.29
2022-08-01T09:57:37.249Z,25.29
2022-08-01T09:58:25.780Z,25.29
2022-08-01T09:59:10.913Z,25.30
2022-08-01T09:59:58.639Z,25.29
2022-08-01T10:00:45.619Z,25.30
2022-08-01T10:01:36.716Z,25.29
2022-08-01T10:02:34.916Z,25.30
2022-08-01T10:03:20.876Z,25.30
2022-08-01T10:04:06.303Z,25.29
2022-08-01T10:04:50.845Z,25.30
2022-08-01T10:05:38.290Z,25.31
2022-08-01T10:06:31.721Z,25.30
2022-08-01T10:07:42.542Z,25.30
2022-08-01T10:08:24.183Z,25.30
2022-08-01T10:09:16.668Z,25.31
2022-08-01T10:10:12.331Z,25.30
2022-08-01T10:11:00.206Z,25.30
2022-08-01T10:11:47.001Z,25.30
2022-08-01T10:12:47.720Z,25.31
2022-08-01T10:13:36.348Z,25.30
2022-08-01T10:14:21.408Z,25.30
2022-08-01T10:15:05.677Z,25.31
2022-08-01T10:15:50.455Z,25.30
2022-08-01T10:16:35.293Z,25.30
2022-08-01T10:17:23.097Z,25.30
2022-08-01T10:18:25.310Z,25.30
2022-08-01T10:19:14.637Z,25.29
2022-08-01T10:19:59.597Z,25.29
2022-08-01T10:20:45.733Z,25.30
2022-08-01T10:21:56.112Z,25.29
2022-08-01T10:22:31.796Z,25.29
2022-08-01T10:23:22.876Z,25.29
2022-08-01T10:24:28.093Z,25.30
2022-08-01T10:25:12.078Z,25.30
2022-08-01T10:26:01.640Z,25.29
2022-08-01T10:26:49.223Z,25.29
2022-08-01T10:27:38.492Z,25.29
2022-08-01T10:28:36.227Z,25.29
2022-08-01T10:29:24.254Z,25.29
2022-08-01T10:30:26.949Z,25.29
2022-08-01T10:31:14.593Z,25.29
2022-08-01T10:32:00.553Z,25.29
2022-08-01T10:32:50.862Z,25.29
2022-08-01T10:34:56.153Z,25.28
2022-08-01T10:37:06.757Z,25.29
2022-08-01T10:37:55.799Z,25.29
2022-08-01T10:38:39.917Z,25.28
2022-08-01T10:39:27.809Z,25.27
2022-08-01T10:40:36.048Z,25.28
2022-08-01T10:41:22.836Z,25.28
2022-08-01T10:42:16.219Z,25.27
2022-08-01T10:43:07.121Z,25.27
2022-08-01T10:43:54.202Z,25.27
2022-08-01T10:44:39.925Z,25.27
2022-08-01T10:45:25.614Z,25.27
2022-08-01T10:46:14.604Z,25.27
2022-08-01T10:47:00.696Z,25.27
2022-08-01T10:47:50.676Z,25.27
2022-08-01T10:48:33.019Z,25.27
2022-08-01T10:49:18.827Z,25.28
2022-08-01T10:50:03.888Z,25.26
2022-08-01T10:50:50.074Z,25.26
2022-08-01T10:51:52.780Z,25.25
2022-08-01T10:52:39.782Z,25.26
2022-08-01T10:53:31.731Z,25.25
2022-08-01T10:54:25.777Z,25.25
2022-08-01T10:55:13.281Z,25.24
2022-08-01T10:56:01.355Z,25.24
2022-08-01T10:56:46.846Z,25.25
2022-08-01T10:57:34.974Z,25.25
2022-08-01T10:58:35.651Z,25.24
2022-08-01T10:59:49.344Z,25.24
2022-08-01T11:00:27.772Z,25.25
2022-08-01T11:01:16.254Z,25.24
2022-08-01T11:02:08.305Z,25.25
2022-08-01T11:02:54.172Z,25.25
2022-08-01T11:03:57.178Z,25.24
2022-08-01T11:04:43.100Z,25.25
2022-08-01T11:05:51.679Z,25.25
2022-08-01T11:06:39.259Z,25.24
2022-08-01T11:07:34.959Z,25.24
2022-08-01T11:08:20.841Z,25.24
2022-08-01T11:09:17.901Z,25.23
2022-08-01T11:10:04.280Z,25.24
2022-08-01T11:10:54.629Z,25.23
2022-08-01T11:11:43.192Z,25.24
2022-08-01T11:12:31.282Z,25.23
2022-08-01T11:13:22.330Z,25.23
2022-08-01T11:14:25.986Z,25.22
2022-08-01T11:15:11.173Z,25.23
2022-08-01T11:16:00.099Z,25.22
2022-08-01T11:16:56.361Z,25.22
2022-08-01T11:17:44.419Z,25.23
2022-08-01T11:18:39.257Z,25.24
2022-08-01T11:19:31.442Z,25.23
2022-08-01T11:20:17.849Z,25.23
2022-08-01T11:21:58.831Z,25.24
2022-08-01T11:22:13.744Z,25.24
2022-08-01T11:23:00.294Z,25.24
2022-08-01T11:23:45.383Z,25.24
2022-08-01T11:24:41.513Z,25.24
2022-08-01T11:26:03.244Z,25.23
2022-08-01T11:27:45.264Z,25.22